sensor_id;sensor_type;location;lat;lon;timestamp;P1;durP1;ratioP1;P2;durP2;ratioP2
8474;SDS011;4274;52.012;8.448;2023-03-21T00:02:16;58.50;;;10.13;;
8474;SDS011;4274;52.012;8.448;2023-03-21T00:04:41;59.40;;;10.50;;
8474;SDS011;4274;52.012;8.448;2023-03-21T00:07:07;62.30;;;9.73;;
8474;SDS011;4274;52.012;8.448;2023-03-21T00:09:33;58.13;;;10.40;;
8474;SDS011;4274;52.012;8.448;2023-03-21T00:11:58;57.70;;;10.07;;
8474;SDS011;4274;52.012;8.448;2023-03-21T00:14:25;54.90;;;10.00;;
8474;SDS011;4274;52.012;8.448;2023-03-21T00:16:54;61.60;;;9.90;;
8474;SDS011;4274;52.012;8.448;2023-03-21T00:19:20;58.17;;;11.30;;
8474;SDS011;4274;52.012;8.448;2023-03-21T00:21:48;61.20;;;9.90;;
8474;SDS011;4274;52.012;8.448;2023-03-21T00:24:16;67.17;;;10.50;;
8474;SDS011;4274;52.012;8.448;2023-03-21T00:26:42;54.90;;;10.17;;
8474;SDS011;4274;52.012;8.448;2023-03-21T00:29:08;59.47;;;9.77;;
8474;SDS011;4274;52.012;8.448;2023-03-21T00:31:33;57.60;;;10.30;;
8474;SDS011;4274;52.012;8.448;2023-03-21T00:33:59;62.63;;;10.03;;
8474;SDS011;4274;52.012;8.448;2023-03-21T00:36:25;60.63;;;10.13;;
8474;SDS011;4274;52.012;8.448;2023-03-21T00:38:51;54.83;;;10.13;;
8474;SDS011;4274;52.012;8.448;2023-03-21T00:41:17;67.83;;;11.67;;
8474;SDS011;4274;52.012;8.448;2023-03-21T00:43:43;57.77;;;11.27;;
8474;SDS011;4274;52.012;8.448;2023-03-21T00:46:08;63.10;;;12.10;;
8474;SDS011;4274;52.012;8.448;2023-03-21T00:48:34;61.70;;;11.70;;
8474;SDS011;4274;52.012;8.448;2023-03-21T00:51:00;58.77;;;12.07;;
8474;SDS011;4274;52.012;8.448;2023-03-21T00:53:26;61.90;;;12.87;;
8474;SDS011;4274;52.012;8.448;2023-03-21T00:55:52;73.40;;;13.67;;
8474;SDS011;4274;52.012;8.448;2023-03-21T00:58:18;60.53;;;14.17;;
8474;SDS011;4274;52.012;8.448;2023-03-21T01:00:43;67.83;;;14.40;;
8474;SDS011;4274;52.012;8.448;2023-03-21T01:03:13;64.87;;;14.00;;
8474;SDS011;4274;52.012;8.448;2023-03-21T01:05:40;57.60;;;13.07;;
8474;SDS011;4274;52.012;8.448;2023-03-21T01:08:29;62.27;;;13.40;;
8474;SDS011;4274;52.012;8.448;2023-03-21T01:11:04;62.07;;;12.23;;
8474;SDS011;4274;52.012;8.448;2023-03-21T01:13:31;61.67;;;12.67;;
8474;SDS011;4274;52.012;8.448;2023-03-21T01:15:58;59.50;;;12.17;;
8474;SDS011;4274;52.012;8.448;2023-03-21T01:18:25;65.80;;;13.37;;
8474;SDS011;4274;52.012;8.448;2023-03-21T01:20:54;63.47;;;13.60;;
8474;SDS011;4274;52.012;8.448;2023-03-21T01:23:24;64.30;;;14.13;;
8474;SDS011;4274;52.012;8.448;2023-03-21T01:25:55;65.50;;;15.30;;
8474;SDS011;4274;52.012;8.448;2023-03-21T01:28:21;72.27;;;16.90;;
8474;SDS011;4274;52.012;8.448;2023-03-21T01:30:49;69.63;;;16.63;;
8474;SDS011;4274;52.012;8.448;2023-03-21T01:33:16;65.83;;;16.50;;
8474;SDS011;4274;52.012;8.448;2023-03-21T01:35:43;75.43;;;18.43;;
8474;SDS011;4274;52.012;8.448;2023-03-21T01:38:09;68.30;;;18.90;;
8474;SDS011;4274;52.012;8.448;2023-03-21T01:40:34;75.37;;;17.90;;
8474;SDS011;4274;52.012;8.448;2023-03-21T01:43:01;78.13;;;18.30;;
8474;SDS011;4274;52.012;8.448;2023-03-21T01:48:30;78.83;;;17.20;;
8474;SDS011;4274;52.012;8.448;2023-03-21T01:50:58;71.90;;;18.57;;
8474;SDS011;4274;52.012;8.448;2023-03-21T01:53:25;77.73;;;21.37;;
8474;SDS011;4274;52.012;8.448;2023-03-21T01:55:57;69.00;;;17.97;;
8474;SDS011;4274;52.012;8.448;2023-03-21T01:58:25;71.67;;;18.00;;
8474;SDS011;4274;52.012;8.448;2023-03-21T02:00:51;71.83;;;18.23;;
8474;SDS011;4274;52.012;8.448;2023-03-21T02:03:19;68.50;;;18.13;;
8474;SDS011;4274;52.012;8.448;2023-03-21T02:08:20;74.53;;;19.13;;
8474;SDS011;4274;52.012;8.448;2023-03-21T02:10:47;73.43;;;19.50;;
8474;SDS011;4274;52.012;8.448;2023-03-21T02:13:14;69.37;;;18.43;;
8474;SDS011;4274;52.012;8.448;2023-03-21T02:15:40;73.27;;;19.20;;
8474;SDS011;4274;52.012;8.448;2023-03-21T02:18:16;71.50;;;17.63;;
8474;SDS011;4274;52.012;8.448;2023-03-21T02:23:28;72.30;;;18.27;;
8474;SDS011;4274;52.012;8.448;2023-03-21T02:29:03;68.07;;;18.50;;
8474;SDS011;4274;52.012;8.448;2023-03-21T02:31:41;75.33;;;19.47;;
8474;SDS011;4274;52.012;8.448;2023-03-21T02:34:22;68.83;;;16.77;;
8474;SDS011;4274;52.012;8.448;2023-03-21T02:41:51;68.73;;;16.90;;
8474;SDS011;4274;52.012;8.448;2023-03-21T02:44:27;83.20;;;18.50;;
8474;SDS011;4274;52.012;8.448;2023-03-21T02:52:19;71.40;;;17.50;;
8474;SDS011;4274;52.012;8.448;2023-03-21T02:54:48;66.97;;;15.37;;
8474;SDS011;4274;52.012;8.448;2023-03-21T02:57:16;71.97;;;18.30;;
8474;SDS011;4274;52.012;8.448;2023-03-21T02:59:43;68.50;;;17.57;;
8474;SDS011;4274;52.012;8.448;2023-03-21T03:02:12;68.27;;;17.53;;
8474;SDS011;4274;52.012;8.448;2023-03-21T03:04:39;68.17;;;16.90;;
8474;SDS011;4274;52.012;8.448;2023-03-21T03:07:25;72.87;;;18.07;;
8474;SDS011;4274;52.012;8.448;2023-03-21T03:23:46;82.43;;;18.03;;
8474;SDS011;4274;52.012;8.448;2023-03-21T03:28:54;77.70;;;18.33;;
8474;SDS011;4274;52.012;8.448;2023-03-21T03:31:24;74.40;;;17.00;;
8474;SDS011;4274;52.012;8.448;2023-03-21T03:33:56;71.23;;;18.50;;
8474;SDS011;4274;52.012;8.448;2023-03-21T03:36:28;78.33;;;16.90;;
8474;SDS011;4274;52.012;8.448;2023-03-21T03:38:58;88.13;;;17.50;;
8474;SDS011;4274;52.012;8.448;2023-03-21T03:41:27;72.60;;;17.60;;
8474;SDS011;4274;52.012;8.448;2023-03-21T03:43:54;71.03;;;16.10;;
8474;SDS011;4274;52.012;8.448;2023-03-21T03:48:54;73.00;;;15.80;;
8474;SDS011;4274;52.012;8.448;2023-03-21T03:53:54;68.40;;;13.90;;
8474;SDS011;4274;52.012;8.448;2023-03-21T03:56:24;72.00;;;15.00;;
8474;SDS011;4274;52.012;8.448;2023-03-21T03:58:51;66.17;;;14.47;;
8474;SDS011;4274;52.012;8.448;2023-03-21T04:01:17;64.27;;;14.37;;
8474;SDS011;4274;52.012;8.448;2023-03-21T04:03:43;77.17;;;14.90;;
8474;SDS011;4274;52.012;8.448;2023-03-21T04:06:12;63.50;;;13.53;;
8474;SDS011;4274;52.012;8.448;2023-03-21T04:08:38;72.20;;;15.60;;
8474;SDS011;4274;52.012;8.448;2023-03-21T04:11:04;71.77;;;13.43;;
8474;SDS011;4274;52.012;8.448;2023-03-21T04:13:29;81.90;;;13.70;;
8474;SDS011;4274;52.012;8.448;2023-03-21T04:15:55;61.23;;;13.90;;
8474;SDS011;4274;52.012;8.448;2023-03-21T04:18:21;62.30;;;11.50;;
8474;SDS011;4274;52.012;8.448;2023-03-21T04:20:48;73.50;;;12.70;;
8474;SDS011;4274;52.012;8.448;2023-03-21T04:23:15;67.03;;;14.13;;
8474;SDS011;4274;52.012;8.448;2023-03-21T04:25:43;61.20;;;11.73;;
8474;SDS011;4274;52.012;8.448;2023-03-21T04:28:09;65.83;;;12.27;;
8474;SDS011;4274;52.012;8.448;2023-03-21T04:30:35;70.57;;;14.10;;
8474;SDS011;4274;52.012;8.448;2023-03-21T04:33:01;69.87;;;13.60;;
8474;SDS011;4274;52.012;8.448;2023-03-21T04:35:27;60.43;;;12.93;;
8474;SDS011;4274;52.012;8.448;2023-03-21T04:37:53;73.37;;;13.20;;
8474;SDS011;4274;52.012;8.448;2023-03-21T04:40:20;59.93;;;12.70;;
8474;SDS011;4274;52.012;8.448;2023-03-21T04:42:46;68.33;;;13.30;;
8474;SDS011;4274;52.012;8.448;2023-03-21T04:45:12;61.00;;;12.83;;
8474;SDS011;4274;52.012;8.448;2023-03-21T04:47:39;63.23;;;12.37;;
8474;SDS011;4274;52.012;8.448;2023-03-21T04:50:06;59.23;;;12.37;;
8474;SDS011;4274;52.012;8.448;2023-03-21T04:52:32;65.23;;;13.77;;
8474;SDS011;4274;52.012;8.448;2023-03-21T04:54:58;65.10;;;14.03;;
8474;SDS011;4274;52.012;8.448;2023-03-21T04:57:24;67.87;;;13.07;;
8474;SDS011;4274;52.012;8.448;2023-03-21T04:59:50;65.30;;;13.20;;
8474;SDS011;4274;52.012;8.448;2023-03-21T05:02:16;66.07;;;11.93;;
8474;SDS011;4274;52.012;8.448;2023-03-21T05:04:42;63.63;;;14.20;;
8474;SDS011;4274;52.012;8.448;2023-03-21T05:07:07;67.03;;;12.67;;
8474;SDS011;4274;52.012;8.448;2023-03-21T05:09:33;70.83;;;13.83;;
8474;SDS011;4274;52.012;8.448;2023-03-21T05:11:58;67.93;;;12.37;;
8474;SDS011;4274;52.012;8.448;2023-03-21T05:14:25;70.50;;;12.67;;
8474;SDS011;4274;52.012;8.448;2023-03-21T05:16:51;69.43;;;13.80;;
8474;SDS011;4274;52.012;8.448;2023-03-21T05:19:18;69.10;;;13.10;;
8474;SDS011;4274;52.012;8.448;2023-03-21T05:21:46;62.70;;;13.30;;
8474;SDS011;4274;52.012;8.448;2023-03-21T05:24:13;70.87;;;13.37;;
8474;SDS011;4274;52.012;8.448;2023-03-21T05:26:44;72.50;;;13.93;;
8474;SDS011;4274;52.012;8.448;2023-03-21T05:29:20;65.80;;;14.17;;
8474;SDS011;4274;52.012;8.448;2023-03-21T05:31:46;68.40;;;13.10;;
8474;SDS011;4274;52.012;8.448;2023-03-21T05:34:13;87.87;;;13.67;;
8474;SDS011;4274;52.012;8.448;2023-03-21T05:36:40;65.27;;;13.10;;
8474;SDS011;4274;52.012;8.448;2023-03-21T05:39:05;57.13;;;12.27;;
8474;SDS011;4274;52.012;8.448;2023-03-21T05:41:31;61.27;;;13.33;;
8474;SDS011;4274;52.012;8.448;2023-03-21T05:43:57;62.07;;;13.47;;
8474;SDS011;4274;52.012;8.448;2023-03-21T05:46:23;71.40;;;13.37;;
8474;SDS011;4274;52.012;8.448;2023-03-21T05:48:48;59.77;;;12.97;;
8474;SDS011;4274;52.012;8.448;2023-03-21T05:51:14;73.47;;;13.93;;
8474;SDS011;4274;52.012;8.448;2023-03-21T05:53:39;67.60;;;13.47;;
8474;SDS011;4274;52.012;8.448;2023-03-21T05:56:05;58.90;;;12.70;;
8474;SDS011;4274;52.012;8.448;2023-03-21T05:58:31;62.17;;;11.33;;
8474;SDS011;4274;52.012;8.448;2023-03-21T06:00:57;58.17;;;12.60;;
8474;SDS011;4274;52.012;8.448;2023-03-21T06:03:22;61.13;;;12.80;;
8474;SDS011;4274;52.012;8.448;2023-03-21T06:05:48;66.87;;;13.20;;
8474;SDS011;4274;52.012;8.448;2023-03-21T06:08:13;58.60;;;12.40;;
8474;SDS011;4274;52.012;8.448;2023-03-21T06:10:39;59.80;;;12.60;;
8474;SDS011;4274;52.012;8.448;2023-03-21T06:13:05;65.07;;;12.80;;
8474;SDS011;4274;52.012;8.448;2023-03-21T06:15:30;63.07;;;12.80;;
8474;SDS011;4274;52.012;8.448;2023-03-21T06:17:56;64.30;;;12.47;;
8474;SDS011;4274;52.012;8.448;2023-03-21T06:20:21;67.47;;;11.93;;
8474;SDS011;4274;52.012;8.448;2023-03-21T06:22:47;66.77;;;12.10;;
8474;SDS011;4274;52.012;8.448;2023-03-21T06:25:12;62.57;;;12.50;;
8474;SDS011;4274;52.012;8.448;2023-03-21T06:27:38;59.17;;;12.33;;
8474;SDS011;4274;52.012;8.448;2023-03-21T06:30:04;63.53;;;14.13;;
8474;SDS011;4274;52.012;8.448;2023-03-21T06:32:30;63.13;;;12.93;;
8474;SDS011;4274;52.012;8.448;2023-03-21T06:34:56;59.30;;;11.97;;
8474;SDS011;4274;52.012;8.448;2023-03-21T06:37:22;62.87;;;11.63;;
8474;SDS011;4274;52.012;8.448;2023-03-21T06:39:48;69.50;;;12.57;;
8474;SDS011;4274;52.012;8.448;2023-03-21T06:42:14;62.50;;;13.27;;
8474;SDS011;4274;52.012;8.448;2023-03-21T06:44:39;56.10;;;10.80;;
8474;SDS011;4274;52.012;8.448;2023-03-21T06:47:05;62.60;;;12.13;;
8474;SDS011;4274;52.012;8.448;2023-03-21T06:49:31;57.57;;;10.73;;
8474;SDS011;4274;52.012;8.448;2023-03-21T06:51:57;67.83;;;12.23;;
8474;SDS011;4274;52.012;8.448;2023-03-21T06:54:22;59.90;;;12.57;;
8474;SDS011;4274;52.012;8.448;2023-03-21T06:56:48;67.10;;;11.50;;
8474;SDS011;4274;52.012;8.448;2023-03-21T06:59:14;73.17;;;13.57;;
8474;SDS011;4274;52.012;8.448;2023-03-21T07:01:40;66.03;;;13.47;;
8474;SDS011;4274;52.012;8.448;2023-03-21T07:04:06;60.93;;;11.97;;
8474;SDS011;4274;52.012;8.448;2023-03-21T07:06:32;62.60;;;12.67;;
8474;SDS011;4274;52.012;8.448;2023-03-21T07:08:58;67.27;;;12.00;;
8474;SDS011;4274;52.012;8.448;2023-03-21T07:11:24;70.17;;;13.60;;
8474;SDS011;4274;52.012;8.448;2023-03-21T07:13:50;61.77;;;13.07;;
8474;SDS011;4274;52.012;8.448;2023-03-21T07:16:16;62.60;;;12.00;;
8474;SDS011;4274;52.012;8.448;2023-03-21T07:18:43;63.43;;;11.90;;
8474;SDS011;4274;52.012;8.448;2023-03-21T07:21:09;61.10;;;12.30;;
8474;SDS011;4274;52.012;8.448;2023-03-21T07:23:35;62.90;;;11.43;;
8474;SDS011;4274;52.012;8.448;2023-03-21T07:26:02;56.97;;;12.00;;
8474;SDS011;4274;52.012;8.448;2023-03-21T07:28:28;65.47;;;12.07;;
8474;SDS011;4274;52.012;8.448;2023-03-21T07:30:56;62.63;;;12.23;;
8474;SDS011;4274;52.012;8.448;2023-03-21T07:33:23;59.27;;;11.23;;
8474;SDS011;4274;52.012;8.448;2023-03-21T07:35:50;66.73;;;13.33;;
8474;SDS011;4274;52.012;8.448;2023-03-21T07:38:16;58.50;;;11.50;;
8474;SDS011;4274;52.012;8.448;2023-03-21T07:40:43;61.60;;;11.00;;
8474;SDS011;4274;52.012;8.448;2023-03-21T07:43:10;64.07;;;10.93;;
8474;SDS011;4274;52.012;8.448;2023-03-21T07:45:36;72.07;;;11.80;;
8474;SDS011;4274;52.012;8.448;2023-03-21T07:48:01;67.13;;;11.73;;
8474;SDS011;4274;52.012;8.448;2023-03-21T07:50:27;60.47;;;12.70;;
8474;SDS011;4274;52.012;8.448;2023-03-21T07:52:53;65.00;;;13.20;;
8474;SDS011;4274;52.012;8.448;2023-03-21T07:55:19;62.17;;;13.20;;
8474;SDS011;4274;52.012;8.448;2023-03-21T07:57:45;64.70;;;13.17;;
8474;SDS011;4274;52.012;8.448;2023-03-21T08:00:13;62.60;;;11.67;;
8474;SDS011;4274;52.012;8.448;2023-03-21T08:02:46;58.60;;;11.57;;
8474;SDS011;4274;52.012;8.448;2023-03-21T08:05:14;60.97;;;11.00;;
8474;SDS011;4274;52.012;8.448;2023-03-21T08:07:39;56.57;;;10.33;;
8474;SDS011;4274;52.012;8.448;2023-03-21T08:10:05;71.13;;;13.10;;
8474;SDS011;4274;52.012;8.448;2023-03-21T08:12:31;64.07;;;12.50;;
8474;SDS011;4274;52.012;8.448;2023-03-21T08:14:57;71.80;;;11.90;;
8474;SDS011;4274;52.012;8.448;2023-03-21T08:17:22;67.73;;;13.23;;
8474;SDS011;4274;52.012;8.448;2023-03-21T08:19:48;62.50;;;12.00;;
8474;SDS011;4274;52.012;8.448;2023-03-21T08:22:13;65.97;;;11.80;;
8474;SDS011;4274;52.012;8.448;2023-03-21T08:24:39;69.83;;;14.07;;
8474;SDS011;4274;52.012;8.448;2023-03-21T08:27:05;74.73;;;14.60;;
8474;SDS011;4274;52.012;8.448;2023-03-21T08:29:30;64.87;;;12.30;;
8474;SDS011;4274;52.012;8.448;2023-03-21T08:31:56;61.17;;;13.57;;
8474;SDS011;4274;52.012;8.448;2023-03-21T08:34:22;58.93;;;11.90;;
8474;SDS011;4274;52.012;8.448;2023-03-21T08:36:47;70.23;;;12.80;;
8474;SDS011;4274;52.012;8.448;2023-03-21T08:39:13;61.70;;;13.80;;
8474;SDS011;4274;52.012;8.448;2023-03-21T08:41:38;68.90;;;14.17;;
8474;SDS011;4274;52.012;8.448;2023-03-21T08:44:04;68.30;;;13.27;;
8474;SDS011;4274;52.012;8.448;2023-03-21T08:46:33;66.80;;;14.07;;
8474;SDS011;4274;52.012;8.448;2023-03-21T08:48:58;64.50;;;12.97;;
8474;SDS011;4274;52.012;8.448;2023-03-21T08:51:24;66.57;;;13.30;;
8474;SDS011;4274;52.012;8.448;2023-03-21T08:53:49;69.80;;;12.73;;
8474;SDS011;4274;52.012;8.448;2023-03-21T08:56:15;63.37;;;13.37;;
8474;SDS011;4274;52.012;8.448;2023-03-21T08:58:41;68.80;;;13.30;;
8474;SDS011;4274;52.012;8.448;2023-03-21T09:01:07;63.80;;;13.40;;
8474;SDS011;4274;52.012;8.448;2023-03-21T09:03:35;64.67;;;12.60;;
8474;SDS011;4274;52.012;8.448;2023-03-21T09:06:02;60.80;;;12.63;;
8474;SDS011;4274;52.012;8.448;2023-03-21T09:08:27;65.17;;;14.17;;
8474;SDS011;4274;52.012;8.448;2023-03-21T09:10:53;68.77;;;13.10;;
8474;SDS011;4274;52.012;8.448;2023-03-21T09:13:20;68.97;;;13.43;;
8474;SDS011;4274;52.012;8.448;2023-03-21T09:15:46;68.70;;;14.03;;
8474;SDS011;4274;52.012;8.448;2023-03-21T09:18:12;71.70;;;14.73;;
8474;SDS011;4274;52.012;8.448;2023-03-21T09:20:39;67.53;;;12.90;;
8474;SDS011;4274;52.012;8.448;2023-03-21T09:23:11;68.27;;;14.50;;
8474;SDS011;4274;52.012;8.448;2023-03-21T09:25:38;66.93;;;14.77;;
8474;SDS011;4274;52.012;8.448;2023-03-21T09:28:08;64.37;;;14.30;;
8474;SDS011;4274;52.012;8.448;2023-03-21T09:30:34;70.93;;;15.33;;
8474;SDS011;4274;52.012;8.448;2023-03-21T09:33:01;71.50;;;14.60;;
8474;SDS011;4274;52.012;8.448;2023-03-21T09:35:30;65.70;;;15.03;;
8474;SDS011;4274;52.012;8.448;2023-03-21T09:37:56;69.60;;;14.90;;
8474;SDS011;4274;52.012;8.448;2023-03-21T09:48:43;65.77;;;14.07;;
8474;SDS011;4274;52.012;8.448;2023-03-21T09:51:12;67.03;;;13.33;;
8474;SDS011;4274;52.012;8.448;2023-03-21T09:53:41;62.83;;;12.73;;
8474;SDS011;4274;52.012;8.448;2023-03-21T09:56:12;71.60;;;13.47;;
8474;SDS011;4274;52.012;8.448;2023-03-21T09:58:42;61.63;;;13.53;;
8474;SDS011;4274;52.012;8.448;2023-03-21T10:01:15;63.57;;;13.73;;
8474;SDS011;4274;52.012;8.448;2023-03-21T10:03:59;64.43;;;14.30;;
8474;SDS011;4274;52.012;8.448;2023-03-21T10:06:27;64.90;;;14.83;;
8474;SDS011;4274;52.012;8.448;2023-03-21T10:08:57;79.47;;;13.30;;
8474;SDS011;4274;52.012;8.448;2023-03-21T10:11:31;60.83;;;12.50;;
8474;SDS011;4274;52.012;8.448;2023-03-21T10:16:47;61.37;;;13.60;;
8474;SDS011;4274;52.012;8.448;2023-03-21T10:19:17;68.87;;;13.60;;
8474;SDS011;4274;52.012;8.448;2023-03-21T10:21:47;64.80;;;14.17;;
8474;SDS011;4274;52.012;8.448;2023-03-21T10:24:18;61.30;;;12.83;;
8474;SDS011;4274;52.012;8.448;2023-03-21T10:26:50;63.00;;;12.57;;
8474;SDS011;4274;52.012;8.448;2023-03-21T10:29:18;65.67;;;12.83;;
8474;SDS011;4274;52.012;8.448;2023-03-21T10:31:46;62.70;;;14.30;;
8474;SDS011;4274;52.012;8.448;2023-03-21T10:34:17;67.43;;;14.57;;
8474;SDS011;4274;52.012;8.448;2023-03-21T10:36:51;66.83;;;13.63;;
8474;SDS011;4274;52.012;8.448;2023-03-21T10:39:23;65.40;;;14.93;;
8474;SDS011;4274;52.012;8.448;2023-03-21T10:41:50;70.73;;;16.10;;
8474;SDS011;4274;52.012;8.448;2023-03-21T10:44:16;68.83;;;14.70;;
8474;SDS011;4274;52.012;8.448;2023-03-21T10:46:52;67.70;;;15.33;;
8474;SDS011;4274;52.012;8.448;2023-03-21T10:49:20;68.27;;;14.33;;
8474;SDS011;4274;52.012;8.448;2023-03-21T10:51:46;61.90;;;13.30;;
8474;SDS011;4274;52.012;8.448;2023-03-21T10:54:17;60.90;;;13.50;;
8474;SDS011;4274;52.012;8.448;2023-03-21T10:59:42;64.07;;;13.37;;
8474;SDS011;4274;52.012;8.448;2023-03-21T11:02:18;58.23;;;12.20;;
8474;SDS011;4274;52.012;8.448;2023-03-21T11:04:49;57.63;;;13.00;;
8474;SDS011;4274;52.012;8.448;2023-03-21T11:07:17;61.27;;;11.73;;
8474;SDS011;4274;52.012;8.448;2023-03-21T11:09:47;60.33;;;12.20;;
8474;SDS011;4274;52.012;8.448;2023-03-21T11:12:34;62.63;;;12.00;;
8474;SDS011;4274;52.012;8.448;2023-03-21T11:15:13;57.83;;;11.23;;
8474;SDS011;4274;52.012;8.448;2023-03-21T11:17:48;54.80;;;11.73;;
8474;SDS011;4274;52.012;8.448;2023-03-21T11:20:16;61.87;;;11.80;;
8474;SDS011;4274;52.012;8.448;2023-03-21T11:22:45;60.90;;;11.97;;
8474;SDS011;4274;52.012;8.448;2023-03-21T11:28:08;57.40;;;11.80;;
8474;SDS011;4274;52.012;8.448;2023-03-21T11:30:47;59.77;;;12.37;;
8474;SDS011;4274;52.012;8.448;2023-03-21T11:33:14;61.13;;;12.33;;
8474;SDS011;4274;52.012;8.448;2023-03-21T11:35:43;61.93;;;12.27;;
8474;SDS011;4274;52.012;8.448;2023-03-21T11:38:28;59.00;;;12.40;;
8474;SDS011;4274;52.012;8.448;2023-03-21T11:40:57;58.73;;;11.27;;
8474;SDS011;4274;52.012;8.448;2023-03-21T11:43:28;56.93;;;12.00;;
8474;SDS011;4274;52.012;8.448;2023-03-21T11:46:05;69.83;;;12.33;;
8474;SDS011;4274;52.012;8.448;2023-03-21T11:48:40;60.70;;;13.43;;
8474;SDS011;4274;52.012;8.448;2023-03-21T11:57:02;64.10;;;14.60;;
8474;SDS011;4274;52.012;8.448;2023-03-21T12:05:40;70.60;;;15.03;;
8474;SDS011;4274;52.012;8.448;2023-03-21T12:13:53;71.73;;;13.80;;
8474;SDS011;4274;52.012;8.448;2023-03-21T12:16:48;58.33;;;12.40;;
8474;SDS011;4274;52.012;8.448;2023-03-21T12:30:12;57.70;;;12.50;;
8474;SDS011;4274;52.012;8.448;2023-03-21T12:36:03;64.90;;;12.43;;
8474;SDS011;4274;52.012;8.448;2023-03-21T12:49:04;59.63;;;12.10;;
8474;SDS011;4274;52.012;8.448;2023-03-21T12:51:38;74.50;;;12.50;;
8474;SDS011;4274;52.012;8.448;2023-03-21T12:54:12;60.23;;;11.10;;
8474;SDS011;4274;52.012;8.448;2023-03-21T12:56:44;57.10;;;11.00;;
8474;SDS011;4274;52.012;8.448;2023-03-21T12:59:32;57.87;;;11.00;;
8474;SDS011;4274;52.012;8.448;2023-03-21T13:02:16;59.70;;;11.27;;
8474;SDS011;4274;52.012;8.448;2023-03-21T13:04:45;55.80;;;11.27;;
8474;SDS011;4274;52.012;8.448;2023-03-21T13:07:33;56.53;;;10.90;;
8474;SDS011;4274;52.012;8.448;2023-03-21T13:10:03;55.50;;;10.90;;
8474;SDS011;4274;52.012;8.448;2023-03-21T13:15:46;58.70;;;10.13;;
8474;SDS011;4274;52.012;8.448;2023-03-21T13:21:23;58.03;;;10.23;;
8474;SDS011;4274;52.012;8.448;2023-03-21T13:24:16;61.87;;;10.37;;
8474;SDS011;4274;52.012;8.448;2023-03-21T13:29:58;51.43;;;9.17;;
8474;SDS011;4274;52.012;8.448;2023-03-21T13:32:31;56.73;;;9.60;;
8474;SDS011;4274;52.012;8.448;2023-03-21T13:35:12;54.33;;;9.57;;
8474;SDS011;4274;52.012;8.448;2023-03-21T13:37:39;53.40;;;9.40;;
8474;SDS011;4274;52.012;8.448;2023-03-21T13:40:19;51.30;;;9.20;;
8474;SDS011;4274;52.012;8.448;2023-03-21T13:42:52;53.60;;;7.43;;
8474;SDS011;4274;52.012;8.448;2023-03-21T13:48:27;50.30;;;6.83;;
8474;SDS011;4274;52.012;8.448;2023-03-21T13:51:05;55.53;;;8.87;;
8474;SDS011;4274;52.012;8.448;2023-03-21T13:58:37;53.17;;;7.53;;
8474;SDS011;4274;52.012;8.448;2023-03-21T14:04:16;47.07;;;6.57;;
8474;SDS011;4274;52.012;8.448;2023-03-21T14:09:15;52.83;;;5.97;;
8474;SDS011;4274;52.012;8.448;2023-03-21T14:11:46;47.17;;;5.90;;
8474;SDS011;4274;52.012;8.448;2023-03-21T14:14:12;53.50;;;5.70;;
8474;SDS011;4274;52.012;8.448;2023-03-21T14:16:38;52.60;;;7.50;;
8474;SDS011;4274;52.012;8.448;2023-03-21T14:19:05;48.80;;;6.40;;
8474;SDS011;4274;52.012;8.448;2023-03-21T14:21:32;46.87;;;6.43;;
8474;SDS011;4274;52.012;8.448;2023-03-21T14:24:00;49.87;;;5.30;;
8474;SDS011;4274;52.012;8.448;2023-03-21T14:26:29;47.77;;;5.47;;
8474;SDS011;4274;52.012;8.448;2023-03-21T14:29:01;51.87;;;6.67;;
8474;SDS011;4274;52.012;8.448;2023-03-21T14:31:31;48.00;;;5.87;;
8474;SDS011;4274;52.012;8.448;2023-03-21T14:33:57;46.70;;;5.53;;
8474;SDS011;4274;52.012;8.448;2023-03-21T14:36:27;49.37;;;5.90;;
8474;SDS011;4274;52.012;8.448;2023-03-21T14:41:31;51.20;;;7.00;;
8474;SDS011;4274;52.012;8.448;2023-03-21T14:44:13;48.20;;;6.60;;
8474;SDS011;4274;52.012;8.448;2023-03-21T14:47:02;51.40;;;5.80;;
8474;SDS011;4274;52.012;8.448;2023-03-21T14:49:31;50.17;;;5.80;;
8474;SDS011;4274;52.012;8.448;2023-03-21T14:52:02;47.57;;;5.97;;
8474;SDS011;4274;52.012;8.448;2023-03-21T14:54:34;49.07;;;6.33;;
8474;SDS011;4274;52.012;8.448;2023-03-21T14:57:04;53.00;;;6.00;;
8474;SDS011;4274;52.012;8.448;2023-03-21T14:59:35;48.13;;;5.97;;
8474;SDS011;4274;52.012;8.448;2023-03-21T15:02:04;48.30;;;5.70;;
8474;SDS011;4274;52.012;8.448;2023-03-21T15:04:57;46.37;;;6.27;;
8474;SDS011;4274;52.012;8.448;2023-03-21T15:07:31;48.80;;;7.03;;
8474;SDS011;4274;52.012;8.448;2023-03-21T15:09:59;47.77;;;5.50;;
8474;SDS011;4274;52.012;8.448;2023-03-21T15:12:29;47.07;;;5.50;;
8474;SDS011;4274;52.012;8.448;2023-03-21T15:14:55;45.70;;;5.10;;
8474;SDS011;4274;52.012;8.448;2023-03-21T15:17:22;48.27;;;5.17;;
8474;SDS011;4274;52.012;8.448;2023-03-21T15:19:49;48.07;;;5.10;;
8474;SDS011;4274;52.012;8.448;2023-03-21T15:24:56;46.10;;;4.30;;
8474;SDS011;4274;52.012;8.448;2023-03-21T15:27:25;45.23;;;4.00;;
8474;SDS011;4274;52.012;8.448;2023-03-21T15:29:54;43.60;;;3.83;;
8474;SDS011;4274;52.012;8.448;2023-03-21T15:32:24;48.10;;;4.60;;
8474;SDS011;4274;52.012;8.448;2023-03-21T15:35:02;44.37;;;4.20;;
8474;SDS011;4274;52.012;8.448;2023-03-21T15:37:37;44.50;;;3.90;;
8474;SDS011;4274;52.012;8.448;2023-03-21T15:40:17;47.50;;;4.87;;
8474;SDS011;4274;52.012;8.448;2023-03-21T15:42:45;49.80;;;4.50;;
8474;SDS011;4274;52.012;8.448;2023-03-21T15:45:16;48.13;;;4.57;;
8474;SDS011;4274;52.012;8.448;2023-03-21T15:50:23;49.00;;;4.50;;
8474;SDS011;4274;52.012;8.448;2023-03-21T15:52:57;45.77;;;4.30;;
8474;SDS011;4274;52.012;8.448;2023-03-21T15:55:34;54.93;;;4.33;;
8474;SDS011;4274;52.012;8.448;2023-03-21T15:58:21;44.87;;;4.50;;
8474;SDS011;4274;52.012;8.448;2023-03-21T16:00:56;46.13;;;4.00;;
8474;SDS011;4274;52.012;8.448;2023-03-21T16:03:45;46.17;;;4.20;;
8474;SDS011;4274;52.012;8.448;2023-03-21T16:08:43;45.87;;;4.20;;
8474;SDS011;4274;52.012;8.448;2023-03-21T16:11:18;44.93;;;4.03;;
8474;SDS011;4274;52.012;8.448;2023-03-21T16:13:49;44.90;;;4.30;;
8474;SDS011;4274;52.012;8.448;2023-03-21T16:18:43;44.90;;;4.10;;
8474;SDS011;4274;52.012;8.448;2023-03-21T16:21:13;46.00;;;4.77;;
8474;SDS011;4274;52.012;8.448;2023-03-21T16:23:41;43.73;;;3.80;;
8474;SDS011;4274;52.012;8.448;2023-03-21T16:26:10;46.93;;;4.30;;
8474;SDS011;4274;52.012;8.448;2023-03-21T16:28:37;43.30;;;3.97;;
8474;SDS011;4274;52.012;8.448;2023-03-21T16:31:03;44.27;;;3.43;;
8474;SDS011;4274;52.012;8.448;2023-03-21T16:33:29;44.33;;;3.57;;
8474;SDS011;4274;52.012;8.448;2023-03-21T16:35:55;43.60;;;3.70;;
8474;SDS011;4274;52.012;8.448;2023-03-21T16:38:21;49.93;;;4.37;;
8474;SDS011;4274;52.012;8.448;2023-03-21T16:40:47;43.80;;;3.47;;
8474;SDS011;4274;52.012;8.448;2023-03-21T16:43:15;43.47;;;3.40;;
8474;SDS011;4274;52.012;8.448;2023-03-21T16:45:40;47.97;;;4.07;;
8474;SDS011;4274;52.012;8.448;2023-03-21T16:48:06;43.87;;;4.00;;
8474;SDS011;4274;52.012;8.448;2023-03-21T16:50:38;45.30;;;4.17;;
8474;SDS011;4274;52.012;8.448;2023-03-21T16:53:06;44.43;;;4.13;;
8474;SDS011;4274;52.012;8.448;2023-03-21T16:55:31;43.20;;;3.90;;
8474;SDS011;4274;52.012;8.448;2023-03-21T16:57:59;44.50;;;3.90;;
8474;SDS011;4274;52.012;8.448;2023-03-21T17:00:25;43.33;;;3.90;;
8474;SDS011;4274;52.012;8.448;2023-03-21T17:02:53;43.73;;;3.63;;
8474;SDS011;4274;52.012;8.448;2023-03-21T17:05:20;48.83;;;4.67;;
8474;SDS011;4274;52.012;8.448;2023-03-21T17:07:47;53.10;;;7.53;;
8474;SDS011;4274;52.012;8.448;2023-03-21T17:12:40;45.23;;;4.30;;
8474;SDS011;4274;52.012;8.448;2023-03-21T17:15:06;44.77;;;4.27;;
8474;SDS011;4274;52.012;8.448;2023-03-21T17:17:32;47.40;;;4.40;;
8474;SDS011;4274;52.012;8.448;2023-03-21T17:19:57;45.57;;;4.37;;
8474;SDS011;4274;52.012;8.448;2023-03-21T17:22:23;53.03;;;4.57;;